createdAt,value
2019-05-01T00:01:14.020Z,101103.53
2019-05-01T00:03:59.056Z,101098.02
2019-05-01T00:06:34.699Z,101091.06
2019-05-01T00:09:07.315Z,101089.80
2019-05-01T00:11:38.124Z,101088.01
2019-05-01T00:14:10.214Z,101083.73
2019-05-01T00:16:40.454Z,101075.11
2019-05-01T00:19:10.333Z,101076.37
2019-05-01T00:21:40.365Z,101069.10
2019-05-01T00:24:10.341Z,101070.41
2019-05-01T00:26:40.311Z,101069.57
2019-05-01T00:29:10.287Z,101064.27
2019-05-01T00:31:40.815Z,101064.30
2019-05-01T00:34:10.698Z,101060.05
2019-05-01T00:36:40.606Z,101056.59
2019-05-01T00:39:12.393Z,101055.72
2019-05-01T00:41:43.009Z,101049.20
2019-05-01T00:44:15.107Z,101053.06
2019-05-01T00:46:45.168Z,101047.42
2019-05-01T00:49:15.327Z,101044.80
2019-05-01T00:51:45.834Z,101043.94
2019-05-01T00:54:15.840Z,101035.28
2019-05-01T00:57:01.901Z,101037.48
2019-05-01T00:59:50.711Z,101040.05
2019-05-01T01:02:33.020Z,101037.01
2019-05-01T01:05:03.563Z,101030.53
2019-05-01T01:07:33.445Z,101031.43
2019-05-01T01:10:04.277Z,101029.15
2019-05-01T01:12:34.264Z,101028.30
2019-05-01T01:15:04.962Z,101026.95
2019-05-01T01:17:35.867Z,101032.53
2019-05-01T01:20:06.402Z,101030.55
2019-05-01T01:22:36.495Z,101027.80
2019-05-01T01:25:12.740Z,101022.12
2019-05-01T01:27:42.710Z,101025.97
2019-05-01T01:30:13.003Z,101008.64
2019-05-01T01:32:43.243Z,101009.50
2019-05-01T01:35:13.308Z,101011.28
2019-05-01T01:37:44.761Z,101013.05
2019-05-01T01:40:15.434Z,101003.43
2019-05-01T01:42:47.446Z,101003.48
2019-05-01T01:45:23.624Z,101001.24
2019-05-01T01:48:10.344Z,101000.50
2019-05-01T01:50:43.619Z,100994.80
2019-05-01T01:53:18.206Z,100988.80
2019-05-01T01:55:49.712Z,100986.22
2019-05-01T01:58:21.396Z,100992.75
2019-05-01T02:01:16.731Z,100986.30
2019-05-01T02:03:51.174Z,100985.94
2019-05-01T02:06:21.559Z,100985.48
2019-05-01T02:08:56.705Z,100978.19
2019-05-01T02:11:23.637Z,100968.23
2019-05-01T02:13:57.736Z,100973.40
2019-05-01T02:16:27.875Z,100973.88
2019-05-01T02:18:57.889Z,100965.17
2019-05-01T02:21:27.879Z,100963.91
2019-05-01T02:23:57.866Z,100971.67
2019-05-01T02:26:29.931Z,100971.81
2019-05-01T02:29:07.678Z,100974.79
2019-05-01T02:31:44.360Z,100972.15
2019-05-01T02:34:15.502Z,100967.95
2019-05-01T02:36:48.643Z,100967.16
2019-05-01T02:39:21.594Z,100965.38
2019-05-01T02:41:55.272Z,100961.47
2019-05-01T02:44:44.686Z,100961.02
2019-05-01T02:47:22.397Z,100965.38
2019-05-01T02:49:59.197Z,100961.53
2019-05-01T02:52:34.109Z,100956.22
2019-05-01T02:55:09.347Z,100959.74
2019-05-01T02:57:41.306Z,100952.78
2019-05-01T03:00:12.030Z,100955.33
2019-05-01T03:02:42.403Z,100950.98
2019-05-01T03:05:13.452Z,100952.72
2019-05-01T03:07:44.095Z,100957.68
2019-05-01T03:10:14.646Z,100954.59
2019-05-01T03:12:48.934Z,100952.86
2019-05-01T03:15:22.084Z,100938.58
2019-05-01T03:18:26.887Z,100945.16
2019-05-01T03:21:24.228Z,100935.56
2019-05-01T03:24:02.578Z,100941.69
2019-05-01T03:26:32.698Z,100933.86
2019-05-01T03:29:02.976Z,100927.81
2019-05-01T03:31:33.130Z,100940.38
2019-05-01T03:34:03.566Z,100941.66
2019-05-01T03:36:34.225Z,100941.67
2019-05-01T03:39:06.169Z,100936.13
2019-05-01T03:41:36.706Z,100934.80
2019-05-01T03:44:06.891Z,100936.13
2019-05-01T03:46:37.447Z,100932.65
2019-05-01T03:49:07.797Z,100934.81
2019-05-01T03:51:38.384Z,100924.39
2019-05-01T03:54:09.248Z,100933.52
2019-05-01T03:56:39.593Z,100936.11
2019-05-01T03:59:10.208Z,100934.38
2019-05-01T04:01:57.026Z,100938.68
2019-05-01T04:04:29.170Z,100929.63
2019-05-01T04:06:59.563Z,100935.22
2019-05-01T04:09:29.916Z,100934.83
2019-05-01T04:12:00.012Z,100940.40
2019-05-01T04:14:30.693Z,100935.23
2019-05-01T04:17:13.104Z,100943.41
2019-05-01T04:19:43.541Z,100938.67
2019-05-01T04:22:14.795Z,100935.66
2019-05-01T04:24:45.261Z,100939.95
2019-05-01T04:27:29.744Z,100937.79
2019-05-01T04:30:07.248Z,100941.27
2019-05-01T04:32:51.925Z,100936.54
2019-05-01T04:35:29.403Z,100942.97
2019-05-01T04:37:59.799Z,100939.06
2019-05-01T04:40:30.009Z,100942.55
2019-05-01T04:43:00.198Z,100942.15
2019-05-01T04:45:30.142Z,100942.14
2019-05-01T04:48:00.698Z,100942.56
2019-05-01T04:50:31.453Z,100940.84
2019-05-01T04:53:01.410Z,100945.16
2019-05-01T04:55:32.682Z,100942.97
2019-05-01T04:58:04.039Z,100945.97
2019-05-01T05:00:34.609Z,100950.64
2019-05-01T05:03:08.947Z,100942.94
2019-05-01T05:05:39.483Z,100953.27
2019-05-01T05:08:09.812Z,100956.36
2019-05-01T05:10:40.200Z,100955.38
2019-05-01T05:13:35.277Z,100953.75
2019-05-01T05:16:22.747Z,100956.82
2019-05-01T05:18:53.195Z,100952.92
2019-05-01T05:21:23.195Z,100955.53
2019-05-01T05:23:53.390Z,100955.52
2019-05-01T05:26:23.709Z,100961.11
2019-05-01T05:28:54.925Z,100970.55
2019-05-01T05:31:28.256Z,100968.06
2019-05-01T05:34:00.663Z,100963.31
2019-05-01T05:36:33.681Z,100957.64
2019-05-01T05:39:16.511Z,100962.45
2019-05-01T05:41:48.855Z,100962.42
2019-05-01T05:44:18.920Z,100965.03
2019-05-01T05:46:48.999Z,100964.16
2019-05-01T05:49:19.415Z,100965.45
2019-05-01T05:52:01.305Z,100955.97
2019-05-01T05:54:46.877Z,100955.13
2019-05-01T05:57:25.938Z,100961.98
2019-05-01T06:00:05.728Z,100960.70
2019-05-01T06:02:46.893Z,100957.24
2019-05-01T06:05:50.973Z,100956.78
2019-05-01T06:08:25.045Z,100970.51
2019-05-01T06:11:09.877Z,100965.03
2019-05-01T06:13:58.979Z,100968.91
2019-05-01T06:16:40.500Z,100965.05
2019-05-01T06:19:21.889Z,100970.23
2019-05-01T06:22:13.447Z,100969.77
2019-05-01T06:24:47.692Z,100964.15
2019-05-01T06:27:19.329Z,100978.86
2019-05-01T06:29:49.893Z,100975.42
2019-05-01T06:32:19.911Z,100971.05
2019-05-01T06:34:50.153Z,100975.35
2019-05-01T06:37:20.815Z,100974.09
2019-05-01T06:39:52.069Z,100975.39
2019-05-01T06:42:23.129Z,100972.41
2019-05-01T06:44:58.869Z,100974.07
2019-05-01T06:47:43.038Z,100978.02
2019-05-01T06:50:19.928Z,100975.40
2019-05-01T06:52:50.795Z,100977.54
2019-05-01T06:55:22.555Z,100972.35
2019-05-01T06:57:53.447Z,100975.67
2019-05-01T07:00:23.803Z,100981.38
2019-05-01T07:02:56.193Z,100983.17
2019-05-01T07:05:27.922Z,100980.55
2019-05-01T07:07:58.988Z,100984.00
2019-05-01T07:10:32.948Z,100983.88
2019-05-01T07:13:04.854Z,100972.28
2019-05-01T07:15:35.893Z,100968.77
2019-05-01T07:18:06.053Z,100979.20
2019-05-01T07:20:53.601Z,100969.16
2019-05-01T07:23:24.199Z,100974.03
2019-05-01T07:25:54.469Z,100974.70
2019-05-01T07:28:28.917Z,100976.37
2019-05-01T07:31:05.287Z,100974.92
2019-05-01T07:33:36.163Z,100974.20
2019-05-01T07:36:14.953Z,100980.91
2019-05-01T07:38:40.531Z,100981.66
2019-05-01T07:41:12.451Z,100992.66
2019-05-01T07:44:02.823Z,100989.16
2019-05-01T07:46:55.991Z,100993.51
2019-05-01T07:49:52.840Z,100998.61
2019-05-01T07:52:24.717Z,100995.27
2019-05-01T07:54:56.626Z,100992.98
2019-05-01T07:57:27.282Z,100988.67
2019-05-01T07:59:58.406Z,100996.56
2019-05-01T08:02:30.990Z,100992.25
2019-05-01T08:05:04.980Z,101000.38
2019-05-01T08:07:33.969Z,100995.47
2019-05-01T08:10:04.496Z,100983.58
2019-05-01T08:12:34.419Z,100995.97
2019-05-01T08:15:04.916Z,100992.94
2019-05-01T08:17:38.125Z,101000.88
2019-05-01T08:20:16.508Z,100994.38
2019-05-01T08:22:46.742Z,100992.66
2019-05-01T08:25:17.106Z,100991.34
2019-05-01T08:28:05.417Z,100990.94
2019-05-01T08:30:52.701Z,100990.94
2019-05-01T08:33:40.458Z,100994.41
2019-05-01T08:36:11.575Z,100989.52
2019-05-01T08:38:42.428Z,100981.63
2019-05-01T08:41:12.493Z,100985.96
2019-05-01T08:43:42.522Z,100975.86
2019-05-01T08:46:25.115Z,100974.18
2019-05-01T08:49:00.511Z,100967.92
2019-05-01T08:51:34.889Z,100970.38
2019-05-01T08:54:03.532Z,100969.30
2019-05-01T08:56:33.747Z,100965.34
2019-05-01T08:59:03.712Z,100975.19
2019-05-01T09:01:33.711Z,100977.68
2019-05-01T09:04:12.587Z,100976.94
2019-05-01T09:06:39.448Z,100972.96
2019-05-01T09:09:09.994Z,100970.49
2019-05-01T09:11:40.236Z,100971.96
2019-05-01T09:14:10.225Z,100966.38
2019-05-01T09:16:40.282Z,100962.99
2019-05-01T09:19:10.316Z,100956.65
2019-05-01T09:21:40.193Z,100956.56
2019-05-01T09:24:10.274Z,100962.91
2019-05-01T09:26:50.312Z,100953.34
2019-05-01T09:29:26.841Z,100954.15
2019-05-01T09:31:56.858Z,100954.78
2019-05-01T09:34:26.806Z,100960.59
2019-05-01T09:36:56.759Z,100953.34
2019-05-01T09:39:27.644Z,100945.95
2019-05-01T09:41:57.508Z,100945.00
2019-05-01T09:44:27.470Z,100947.22
2019-05-01T09:46:57.347Z,100948.80
2019-05-01T09:49:27.596Z,100946.66
2019-05-01T09:52:18.925Z,100946.71
2019-05-01T09:54:52.257Z,100937.09
2019-05-01T09:57:22.350Z,100928.78
2019-05-01T09:59:52.335Z,100932.74
2019-05-01T10:02:22.298Z,100932.66
2019-05-01T10:04:52.163Z,100929.41
2019-05-01T10:07:23.874Z,100940.95
2019-05-01T10:09:54.035Z,100937.43
2019-05-01T10:12:24.152Z,100939.16
2019-05-01T10:14:54.168Z,100932.82
2019-05-01T10:17:24.182Z,100932.55
2019-05-01T10:19:54.430Z,100931.03
2019-05-01T10:22:24.303Z,100927.83
2019-05-01T10:24:54.362Z,100928.28
2019-05-01T10:27:30.934Z,100932.39
2019-05-01T10:30:20.290Z,100930.06
2019-05-01T10:32:57.939Z,100925.37
2019-05-01T10:35:41.867Z,100928.16
2019-05-01T10:38:04.771Z,100924.75
2019-05-01T10:40:34.438Z,100922.27
2019-05-01T10:43:04.725Z,100917.02
2019-05-01T10:45:35.325Z,100917.59
2019-05-01T10:48:05.844Z,100907.67
2019-05-01T10:50:35.752Z,100906.62
2019-05-01T10:53:05.955Z,100902.80
2019-05-01T10:55:35.871Z,100901.54
2019-05-01T10:58:05.739Z,100899.66
2019-05-01T11:00:37.299Z,100890.27
2019-05-01T11:03:07.297Z,100881.73
2019-05-01T11:05:37.277Z,100884.59
2019-05-01T11:08:07.503Z,100874.75
2019-05-01T11:10:37.472Z,100878.88
2019-05-01T11:13:07.883Z,100874.31
2019-05-01T11:15:38.035Z,100874.66
2019-05-01T11:18:08.217Z,100866.36
2019-05-01T11:20:38.250Z,100871.38
2019-05-01T11:23:08.249Z,100874.65
2019-05-01T11:25:38.949Z,100868.10
2019-05-01T11:28:08.991Z,100871.75
2019-05-01T11:30:39.009Z,100870.22
2019-05-01T11:33:14.878Z,100865.02
2019-05-01T11:36:08.977Z,100869.61
2019-05-01T11:38:41.170Z,100861.42
2019-05-01T11:41:16.435Z,100855.44
2019-05-01T11:43:46.318Z,100861.69
2019-05-01T11:46:16.322Z,100874.63
2019-05-01T11:48:46.240Z,100864.13
2019-05-01T11:51:16.159Z,100855.77
2019-05-01T11:53:46.157Z,100852.59
2019-05-01T11:56:16.048Z,100853.57
2019-05-01T11:58:45.948Z,100857.92
2019-05-01T12:01:17.468Z,100859.90
2019-05-01T12:03:47.466Z,100853.71
2019-05-01T12:06:23.115Z,100848.38
2019-05-01T12:08:48.986Z,100836.94
2019-05-01T12:11:20.516Z,100836.38
2019-05-01T12:13:50.415Z,100834.58
2019-05-01T12:16:26.394Z,100831.89
2019-05-01T12:18:56.353Z,100827.30
2019-05-01T12:21:26.618Z,100823.29
2019-05-01T12:23:56.564Z,100821.10
2019-05-01T12:26:26.567Z,100819.03
2019-05-01T12:28:56.472Z,100820.69
2019-05-01T12:31:26.345Z,100822.65
2019-05-01T12:33:56.224Z,100813.28
2019-05-01T12:36:36.127Z,100814.34
2019-05-01T12:38:57.883Z,100812.64
2019-05-01T12:41:36.252Z,100809.25
2019-05-01T12:44:06.457Z,100807.30
2019-05-01T12:46:48.256Z,100806.18
2019-05-01T12:49:18.316Z,100800.09
2019-05-01T12:51:50.319Z,100805.29
2019-05-01T12:54:37.558Z,100807.23
2019-05-01T12:57:07.442Z,100793.31
2019-05-01T12:59:37.408Z,100797.23
2019-05-01T13:02:07.491Z,100799.48
2019-05-01T13:04:37.854Z,100798.04
2019-05-01T13:07:08.894Z,100795.95
2019-05-01T13:09:38.858Z,100797.64
2019-05-01T13:12:08.745Z,100791.85
2019-05-01T13:14:38.781Z,100790.11
2019-05-01T13:17:08.734Z,100790.55
2019-05-01T13:19:38.692Z,100784.03
2019-05-01T13:22:08.690Z,100776.19
2019-05-01T13:24:49.912Z,100778.58
2019-05-01T13:27:25.700Z,100773.49
2019-05-01T13:30:01.919Z,100768.34
2019-05-01T13:32:46.201Z,100765.78
2019-05-01T13:35:16.314Z,100765.84
2019-05-01T13:37:46.242Z,100760.84
2019-05-01T13:40:17.557Z,100761.29
2019-05-01T13:42:47.427Z,100764.03
2019-05-01T13:45:17.945Z,100761.73
2019-05-01T13:47:47.818Z,100759.13
2019-05-01T13:50:17.782Z,100757.44
2019-05-01T13:52:47.749Z,100753.91
2019-05-01T13:55:17.861Z,100757.55
2019-05-01T13:57:47.712Z,100752.16
2019-05-01T14:00:19.219Z,100748.70
2019-05-01T14:02:49.120Z,100749.44
2019-05-01T14:05:19.423Z,100750.84
2019-05-01T14:07:49.315Z,100743.30
2019-05-01T14:10:19.975Z,100745.47
2019-05-01T14:12:49.864Z,100738.18
2019-05-01T14:15:20.007Z,100735.13
2019-05-01T14:17:50.057Z,100736.58
2019-05-01T14:20:30.484Z,100736.42
2019-05-01T14:23:08.255Z,100733.71
2019-05-01T14:25:55.786Z,100724.44
2019-05-01T14:28:25.659Z,100729.52
2019-05-01T14:30:55.558Z,100722.48
2019-05-01T14:33:25.481Z,100715.67
2019-05-01T14:35:55.409Z,100716.66
2019-05-01T14:38:25.365Z,100715.00
2019-05-01T14:40:55.327Z,100713.80
2019-05-01T14:43:25.671Z,100716.44
2019-05-01T14:45:56.021Z,100694.55
2019-05-01T14:48:26.016Z,100703.47
2019-05-01T14:50:55.923Z,100704.23
2019-05-01T14:53:26.171Z,100701.23
2019-05-01T14:55:56.065Z,100693.98
2019-05-01T14:58:26.025Z,100682.66
2019-05-01T15:00:55.918Z,100681.13
2019-05-01T15:03:25.837Z,100678.36
2019-05-01T15:05:55.867Z,100688.97
2019-05-01T15:08:25.860Z,100693.77
2019-05-01T15:10:56.020Z,100684.87
2019-05-01T15:13:37.568Z,100688.80
2019-05-01T15:16:17.703Z,100679.21
2019-05-01T15:19:12.386Z,100682.80
2019-05-01T15:21:42.411Z,100675.68
2019-05-01T15:24:12.446Z,100673.88
2019-05-01T15:26:42.364Z,100673.27
2019-05-01T15:29:12.347Z,100668.10
2019-05-01T15:31:42.338Z,100659.89
2019-05-01T15:34:12.256Z,100666.40
2019-05-01T15:36:42.170Z,100664.03
2019-05-01T15:39:27.107Z,100662.80
2019-05-01T15:42:15.123Z,100664.16
2019-05-01T15:44:47.775Z,100663.29
2019-05-01T15:47:16.674Z,100656.39
2019-05-01T15:49:46.731Z,100665.05
2019-05-01T15:52:16.705Z,100653.70
2019-05-01T15:54:46.607Z,100644.32
2019-05-01T15:57:16.533Z,100651.27
2019-05-01T15:59:46.502Z,100654.08
2019-05-01T16:02:16.390Z,100649.48
2019-05-01T16:04:46.341Z,100652.06
2019-05-01T16:07:16.266Z,100650.00
2019-05-01T16:09:46.140Z,100646.66
2019-05-01T16:12:27.747Z,100642.25
2019-05-01T16:14:57.675Z,100653.36
2019-05-01T16:17:27.572Z,100659.07
2019-05-01T16:19:57.436Z,100649.23
2019-05-01T16:22:27.355Z,100652.27
2019-05-01T16:24:57.227Z,100653.09
2019-05-01T16:27:27.152Z,100655.83
2019-05-01T16:29:57.056Z,100648.60
2019-05-01T16:32:27.054Z,100641.69
2019-05-01T16:34:56.964Z,100638.70
2019-05-01T16:37:26.908Z,100635.62
2019-05-01T16:40:22.132Z,100645.59
2019-05-01T16:42:52.085Z,100644.17
2019-05-01T16:45:22.119Z,100642.88
2019-05-01T16:47:52.153Z,100636.23
2019-05-01T16:50:22.624Z,100636.42
2019-05-01T16:52:52.755Z,100626.03
2019-05-01T16:55:23.068Z,100619.97
2019-05-01T16:57:53.222Z,100618.92
2019-05-01T17:01:39.337Z,100618.41
2019-05-01T17:04:18.948Z,100620.57
2019-05-01T17:06:56.644Z,100625.31
2019-05-01T17:09:44.708Z,100618.23
2019-05-01T17:12:17.228Z,100612.30
2019-05-01T17:14:47.190Z,100617.49
2019-05-01T17:17:19.916Z,100616.78
2019-05-01T17:19:49.891Z,100624.98
2019-05-01T17:22:19.767Z,100616.91
2019-05-01T17:24:49.754Z,100614.38
2019-05-01T17:27:19.670Z,100614.30
2019-05-01T17:29:49.579Z,100624.89
2019-05-01T17:32:19.620Z,100619.25
2019-05-01T17:34:49.532Z,100620.63
2019-05-01T17:37:19.480Z,100614.48
2019-05-01T17:39:49.358Z,100614.77
2019-05-01T17:42:19.245Z,100622.24
2019-05-01T17:44:49.134Z,100618.35
2019-05-01T17:47:22.487Z,100619.43
2019-05-01T17:49:50.612Z,100622.20
2019-05-01T17:52:20.505Z,100616.72
2019-05-01T17:54:50.508Z,100624.95
2019-05-01T17:57:20.388Z,100625.43
2019-05-01T17:59:52.139Z,100626.26
2019-05-01T18:02:42.745Z,100621.39
2019-05-01T18:05:19.910Z,100625.70
2019-05-01T18:07:49.783Z,100630.74
2019-05-01T18:10:19.683Z,100625.02
2019-05-01T18:12:49.561Z,100631.53
2019-05-01T18:15:19.521Z,100628.14
2019-05-01T18:17:49.412Z,100627.97
2019-05-01T18:20:19.277Z,100629.04
2019-05-01T18:23:00.892Z,100625.47
2019-05-01T18:25:53.909Z,100627.17
2019-05-01T18:28:34.098Z,100630.23
2019-05-01T18:31:05.404Z,100631.35
2019-05-01T18:33:35.285Z,100634.19
2019-05-01T18:36:06.405Z,100628.14
2019-05-01T18:38:47.663Z,100630.67
2019-05-01T18:41:25.575Z,100629.05
2019-05-01T18:43:55.557Z,100633.92
2019-05-01T18:46:25.581Z,100633.73
2019-05-01T18:48:55.530Z,100631.08
2019-05-01T18:51:25.791Z,100634.47
2019-05-01T18:53:57.615Z,100630.16
2019-05-01T18:56:27.736Z,100634.93
2019-05-01T18:58:57.668Z,100635.66
2019-05-01T19:01:27.617Z,100635.33
2019-05-01T19:03:57.631Z,100638.86
2019-05-01T19:06:40.115Z,100640.16
2019-05-01T19:08:59.402Z,100639.72
2019-05-01T19:11:29.461Z,100637.86
2019-05-01T19:13:59.449Z,100634.97
2019-05-01T19:16:29.470Z,100640.55
2019-05-01T19:18:59.474Z,100640.64
2019-05-01T19:21:30.073Z,100640.33
2019-05-01T19:24:01.099Z,100639.84
2019-05-01T19:26:31.817Z,100645.36
2019-05-01T19:29:01.809Z,100642.68
2019-05-01T19:31:31.734Z,100646.33
2019-05-01T19:34:01.794Z,100644.09
2019-05-01T19:36:31.708Z,100643.45
2019-05-01T19:39:01.613Z,100645.72
2019-05-01T19:41:31.526Z,100646.88
2019-05-01T19:44:01.391Z,100645.03
2019-05-01T19:46:31.324Z,100639.19
2019-05-01T19:49:01.227Z,100642.84
2019-05-01T19:51:31.146Z,100636.91
2019-05-01T19:54:01.068Z,100636.30
2019-05-01T19:56:31.068Z,100629.44
2019-05-01T19:59:00.993Z,100624.38
2019-05-01T20:01:31.028Z,100628.69
2019-05-01T20:04:00.991Z,100631.68
2019-05-01T20:06:31.036Z,100628.08
2019-05-01T20:09:01.018Z,100634.36
2019-05-01T20:11:31.001Z,100622.19
2019-05-01T20:14:00.878Z,100622.44
2019-05-01T20:16:30.923Z,100629.20
2019-05-01T20:19:00.912Z,100627.22
2019-05-01T20:21:30.852Z,100621.48
2019-05-01T20:24:04.362Z,100619.06
2019-05-01T20:26:34.081Z,100619.00
2019-05-01T20:29:04.046Z,100613.70
2019-05-01T20:31:33.987Z,100611.36
2019-05-01T20:34:04.053Z,100610.95
2019-05-01T20:36:33.949Z,100616.13
2019-05-01T20:39:06.507Z,100602.84
2019-05-01T20:41:36.444Z,100608.78
2019-05-01T20:44:06.647Z,100609.41
2019-05-01T20:46:36.735Z,100609.77
2019-05-01T20:49:06.893Z,100610.80
2019-05-01T20:51:36.800Z,100604.44
2019-05-01T20:54:06.691Z,100602.64
2019-05-01T20:56:57.004Z,100596.84
2019-05-01T20:59:26.880Z,100602.63
2019-05-01T21:01:59.614Z,100607.86
2019-05-01T21:04:48.171Z,100594.74
2019-05-01T21:07:24.918Z,100595.91
2019-05-01T21:09:57.737Z,100593.03
2019-05-01T21:12:26.922Z,100599.61
2019-05-01T21:14:56.963Z,100596.03
2019-05-01T21:17:27.065Z,100601.39
2019-05-01T21:19:57.170Z,100599.69
2019-05-01T21:22:27.088Z,100597.91
2019-05-01T21:24:57.107Z,100599.81
2019-05-01T21:27:27.095Z,100600.63
2019-05-01T21:29:57.014Z,100601.06
2019-05-01T21:32:27.620Z,100591.86
2019-05-01T21:34:57.862Z,100605.17
2019-05-01T21:37:28.005Z,100598.09
2019-05-01T21:39:58.168Z,100596.28
2019-05-01T21:42:28.071Z,100594.61
2019-05-01T21:44:58.129Z,100600.56
2019-05-01T21:47:28.244Z,100598.59
2019-05-01T21:49:58.828Z,100603.55
2019-05-01T21:52:28.962Z,100596.89
2019-05-01T21:54:58.975Z,100600.36
2019-05-01T21:57:32.266Z,100595.00
2019-05-01T22:00:00.645Z,100592.55
2019-05-01T22:02:30.693Z,100595.27
2019-05-01T22:05:03.753Z,100605.12
2019-05-01T22:07:32.327Z,100594.84
2019-05-01T22:10:02.595Z,100595.80
2019-05-01T22:12:32.612Z,100589.27
2019-05-01T22:15:11.101Z,100594.11
2019-05-01T22:18:03.091Z,100591.95
2019-05-01T22:20:38.500Z,100594.59
2019-05-01T22:23:11.339Z,100598.44
2019-05-01T22:25:50.530Z,100601.88
2019-05-01T22:28:25.157Z,100595.86
2019-05-01T22:31:08.494Z,100591.13
2019-05-01T22:33:39.498Z,100588.09
2019-05-01T22:36:09.478Z,100585.52
2019-05-01T22:38:39.440Z,100586.83
2019-05-01T22:41:11.429Z,100573.88
2019-05-01T22:43:41.515Z,100570.88
2019-05-01T22:46:18.649Z,100572.16
2019-05-01T22:48:48.770Z,100562.70
2019-05-01T22:51:22.230Z,100561.80
2019-05-01T22:53:55.552Z,100555.80
2019-05-01T22:56:26.275Z,100554.05
2019-05-01T22:58:56.198Z,100559.27
2019-05-01T23:01:27.009Z,100554.03
2019-05-01T23:04:07.421Z,100549.25
2019-05-01T23:06:41.721Z,100539.78
2019-05-01T23:09:12.104Z,100539.87
2019-05-01T23:11:44.966Z,100544.17
2019-05-01T23:14:15.398Z,100542.91
2019-05-01T23:17:05.233Z,100539.88
2019-05-01T23:19:35.452Z,100535.59
2019-05-01T23:22:07.204Z,100530.41
2019-05-01T23:24:37.221Z,100529.56
2019-05-01T23:27:07.200Z,100527.81
2019-05-01T23:29:37.186Z,100526.09
2019-05-01T23:32:07.189Z,100523.53
2019-05-01T23:34:37.116Z,100520.93
2019-05-01T23:37:07.528Z,100518.37
2019-05-01T23:39:40.367Z,100508.88
2019-05-01T23:42:09.150Z,100508.46
2019-05-01T23:44:43.070Z,100504.59
2019-05-01T23:47:10.767Z,100503.73
2019-05-01T23:49:40.693Z,100500.69
2019-05-01T23:52:10.574Z,100483.88
2019-05-01T23:54:40.700Z,100483.92
2019-05-01T23:57:14.995Z,100489.95
2019-05-01T23:59:42.333Z,100488.22
